createdAt,value
2023-03-08T00:02:48.760Z,1.88
2023-03-08T00:09:50.305Z,2.03
2023-03-08T00:16:51.870Z,1.80
2023-03-08T00:23:54.058Z,2.17
2023-03-08T00:31:00.031Z,2.55
2023-03-08T00:38:01.653Z,2.22
2023-03-08T00:45:03.425Z,2.33
2023-03-08T00:52:05.703Z,3.15
2023-03-08T00:59:07.271Z,2.55
2023-03-08T01:06:10.807Z,2.78
2023-03-08T01:13:12.501Z,3.22
2023-03-08T01:20:14.128Z,2.72
2023-03-08T01:27:16.841Z,2.47
2023-03-08T01:34:18.453Z,2.53
2023-03-08T01:41:29.757Z,2.75
2023-03-08T01:48:51.314Z,2.03
2023-03-08T01:55:54.058Z,3.85
2023-03-08T02:03:09.071Z,2.88
2023-03-08T02:10:11.451Z,2.53
2023-03-08T02:17:13.050Z,4.28
2023-03-08T02:24:22.215Z,4.13
2023-03-08T02:31:23.768Z,3.58
2023-03-08T02:38:25.337Z,3.30
2023-03-08T02:45:26.936Z,4.20
2023-03-08T02:52:28.478Z,3.75
2023-03-08T02:59:30.897Z,3.10
2023-03-08T03:06:33.760Z,4.47
2023-03-08T03:13:35.833Z,5.32
2023-03-08T03:20:37.718Z,4.72
2023-03-08T03:27:39.366Z,4.03
2023-03-08T03:34:41.846Z,3.47
2023-03-08T03:41:44.292Z,3.33
2023-03-08T03:48:48.703Z,3.90
2023-03-08T03:55:53.891Z,5.75
2023-03-08T04:02:55.773Z,5.50
2023-03-08T04:09:57.649Z,5.53
2023-03-08T04:17:00.330Z,4.47
2023-03-08T04:24:11.035Z,4.80
2023-03-08T04:31:14.669Z,4.53
2023-03-08T04:38:17.162Z,4.70
2023-03-08T04:45:21.198Z,3.25
2023-03-08T04:52:22.964Z,4.60
2023-03-08T04:59:24.938Z,3.97
2023-03-08T05:06:29.446Z,3.78
2023-03-08T05:13:37.048Z,4.38
2023-03-08T05:20:39.656Z,3.95
2023-03-08T05:27:41.678Z,4.00
2023-03-08T05:34:44.387Z,6.25
2023-03-08T05:41:51.917Z,5.15
2023-03-08T05:49:00.990Z,4.97
2023-03-08T05:56:15.621Z,4.13
2023-03-08T06:03:23.127Z,4.30
2023-03-08T06:10:25.192Z,5.05
2023-03-08T06:17:27.912Z,3.55
2023-03-08T06:24:31.360Z,3.88
2023-03-08T06:31:35.689Z,3.92
2023-03-08T06:38:40.214Z,3.55
2023-03-08T06:45:42.043Z,3.40
2023-03-08T06:52:43.980Z,6.45
2023-03-08T06:59:46.301Z,3.88
2023-03-08T07:06:47.849Z,4.15
2023-03-08T07:13:49.393Z,4.35
2023-03-08T07:20:57.051Z,4.47
2023-03-08T07:27:59.343Z,4.95
2023-03-08T07:35:00.930Z,4.22
2023-03-08T07:42:02.457Z,4.75
2023-03-08T07:49:04.034Z,6.45
2023-03-08T07:56:05.985Z,4.18
2023-03-08T08:03:07.540Z,4.43
2023-03-08T08:10:09.850Z,4.43
2023-03-08T08:17:11.545Z,4.32
2023-03-08T08:24:13.136Z,5.15
2023-03-08T08:31:16.470Z,4.10
2023-03-08T08:38:18.041Z,4.72
2023-03-08T08:45:19.627Z,3.83
2023-03-08T08:52:21.332Z,4.82
2023-03-08T08:59:22.967Z,4.18
2023-03-08T09:06:24.741Z,3.70
2023-03-08T09:13:26.348Z,4.10
2023-03-08T09:20:27.875Z,3.85
2023-03-08T09:27:29.553Z,3.58
2023-03-08T09:34:31.230Z,4.15
2023-03-08T09:41:41.660Z,3.22
2023-03-08T09:48:44.878Z,3.25
2023-03-08T09:55:49.509Z,3.35
2023-03-08T10:03:18.936Z,3.50
2023-03-08T10:10:38.400Z,4.85
2023-03-08T10:18:10.526Z,3.47
2023-03-08T10:25:31.300Z,3.83
2023-03-08T10:32:33.141Z,3.28
2023-03-08T10:39:36.274Z,3.95
2023-03-08T10:46:45.137Z,3.45
2023-03-08T10:53:56.648Z,3.28
2023-03-08T11:01:00.308Z,3.20
2023-03-08T11:08:01.864Z,3.17
2023-03-08T11:15:12.793Z,3.20
2023-03-08T11:22:27.007Z,3.78
2023-03-08T11:29:43.458Z,4.70
2023-03-08T11:37:00.135Z,7.18
2023-03-08T11:44:17.493Z,32.05
2023-03-08T11:51:42.313Z,57.42
2023-03-08T11:58:50.952Z,3.55
2023-03-08T12:05:55.510Z,3.17
2023-03-08T12:13:04.970Z,3.08
2023-03-08T12:20:08.161Z,2.92
2023-03-08T12:27:35.147Z,3.10
2023-03-08T12:34:37.782Z,2.63
2023-03-08T12:41:39.343Z,2.83
2023-03-08T12:48:48.233Z,3.45
2023-03-08T12:56:29.970Z,4.65
2023-03-08T13:03:39.605Z,3.17
2023-03-08T13:10:52.389Z,3.05
2023-03-08T13:18:01.055Z,3.00
2023-03-08T13:25:07.050Z,3.95
2023-03-08T13:32:13.558Z,2.90
2023-03-08T13:39:26.210Z,3.22
2023-03-08T13:46:27.784Z,3.88
2023-03-08T13:53:35.429Z,3.05
2023-03-08T14:00:37.114Z,3.28
2023-03-08T14:07:38.702Z,3.70
2023-03-08T14:14:40.675Z,4.50
2023-03-08T14:21:59.544Z,4.53
2023-03-08T14:29:17.988Z,4.40
2023-03-08T14:36:19.552Z,4.95
2023-03-08T14:43:23.024Z,4.50
2023-03-08T14:50:34.236Z,4.63
2023-03-08T14:57:35.784Z,5.00
2023-03-08T15:04:37.715Z,10.13
2023-03-08T15:11:39.357Z,11.32
2023-03-08T15:18:40.888Z,19.15
2023-03-08T15:25:42.533Z,12.20
2023-03-08T15:32:44.519Z,22.90
2023-03-08T15:39:46.337Z,24.45
2023-03-08T15:46:47.985Z,26.73
2023-03-08T15:53:49.788Z,22.05
2023-03-08T16:00:52.148Z,36.50
2023-03-08T16:07:59.265Z,6.20
2023-03-08T16:15:00.875Z,13.85
2023-03-08T16:22:02.691Z,5.25
2023-03-08T16:29:04.470Z,8.95
2023-03-08T16:36:06.223Z,11.57
2023-03-08T16:43:08.252Z,18.48
2023-03-08T16:50:12.245Z,13.02
2023-03-08T16:57:19.098Z,9.02
2023-03-08T17:04:22.654Z,10.23
2023-03-08T17:11:25.944Z,16.73
2023-03-08T17:18:27.522Z,18.42
2023-03-08T17:25:29.120Z,22.95
2023-03-08T17:32:31.611Z,25.85
2023-03-08T17:39:33.205Z,31.75
2023-03-08T17:46:34.914Z,37.22
2023-03-08T17:53:37.452Z,37.00
2023-03-08T18:00:38.990Z,44.50
2023-03-08T18:07:41.855Z,39.63
2023-03-08T18:14:44.538Z,42.08
2023-03-08T18:21:53.174Z,42.88
2023-03-08T18:28:54.871Z,42.45
2023-03-08T18:35:57.400Z,44.33
2023-03-08T18:42:59.046Z,41.92
2023-03-08T18:50:00.672Z,38.88
2023-03-08T18:57:02.191Z,37.47
2023-03-08T19:04:05.986Z,33.17
2023-03-08T19:11:18.511Z,37.03
2023-03-08T19:18:20.070Z,36.15
2023-03-08T19:25:21.611Z,39.47
2023-03-08T19:32:23.293Z,35.90
2023-03-08T19:39:31.921Z,33.58
2023-03-08T19:46:37.496Z,35.83
2023-03-08T19:53:40.174Z,38.08
2023-03-08T20:00:43.889Z,36.30
2023-03-08T20:07:45.492Z,34.05
2023-03-08T20:14:47.055Z,39.90
2023-03-08T20:21:48.674Z,50.03
2023-03-08T20:28:50.580Z,48.13
2023-03-08T20:36:10.242Z,50.13
2023-03-08T20:43:11.913Z,45.42
2023-03-08T20:50:13.489Z,46.20
2023-03-08T20:57:15.069Z,47.30
2023-03-08T21:04:16.571Z,48.45
2023-03-08T21:11:18.277Z,55.60
2023-03-08T21:18:19.838Z,51.38
2023-03-08T21:25:21.422Z,51.50
2023-03-08T21:32:23.147Z,50.03
2023-03-08T21:39:26.719Z,48.92
2023-03-08T21:46:28.399Z,51.47
2023-03-08T21:53:29.989Z,51.72
2023-03-08T22:00:32.095Z,49.60
2023-03-08T22:07:33.614Z,47.88
2023-03-08T22:14:35.150Z,47.28
2023-03-08T22:21:36.725Z,45.35
2023-03-08T22:28:38.333Z,50.47
2023-03-08T22:35:39.912Z,52.65
2023-03-08T22:42:41.541Z,50.45
2023-03-08T22:49:43.107Z,50.08
2023-03-08T22:56:44.728Z,50.75
2023-03-08T23:03:49.141Z,52.08
2023-03-08T23:10:50.644Z,50.60
2023-03-08T23:17:52.168Z,45.42
2023-03-08T23:24:53.667Z,53.42
2023-03-08T23:31:55.287Z,54.03
2023-03-08T23:38:57.675Z,42.95
2023-03-08T23:45:59.245Z,50.92
2023-03-08T23:53:00.801Z,48.78
